createdAt,value
2018-04-22T00:00:20.597Z,20.00
2018-04-22T00:02:48.345Z,21.57
2018-04-22T00:05:16.297Z,21.87
2018-04-22T00:07:44.107Z,23.00
2018-04-22T00:10:12.079Z,21.03
2018-04-22T00:12:39.834Z,21.87
2018-04-22T00:15:07.566Z,20.60
2018-04-22T00:20:12.148Z,19.77
2018-04-22T00:22:40.615Z,22.17
2018-04-22T00:25:08.340Z,22.43
2018-04-22T00:27:36.038Z,21.03
2018-04-22T00:30:03.848Z,23.17
2018-04-22T00:32:32.741Z,19.63
2018-04-22T00:35:07.151Z,20.40
2018-04-22T00:37:37.671Z,20.13
2018-04-22T00:40:05.453Z,20.70
2018-04-22T00:42:33.673Z,20.57
2018-04-22T00:45:02.516Z,21.80
2018-04-22T00:47:31.057Z,21.90
2018-04-22T00:49:59.813Z,22.33
2018-04-22T00:52:27.693Z,22.60
2018-04-22T00:54:55.476Z,22.30
2018-04-22T00:57:23.953Z,22.43
2018-04-22T00:59:51.673Z,17.73
2018-04-22T01:02:19.385Z,22.90
2018-04-22T01:04:49.587Z,22.47
2018-04-22T01:07:17.308Z,22.77
2018-04-22T01:09:45.023Z,22.97
2018-04-22T01:12:13.541Z,22.60
2018-04-22T01:14:41.280Z,22.20
2018-04-22T01:17:09.157Z,21.73
2018-04-22T01:19:36.961Z,23.30
2018-04-22T01:22:04.762Z,22.50
2018-04-22T01:24:33.662Z,23.33
2018-04-22T01:27:01.464Z,21.80
2018-04-22T01:29:30.030Z,21.93
2018-04-22T01:31:57.711Z,22.27
2018-04-22T01:34:25.480Z,22.90
2018-04-22T01:36:53.541Z,22.93
2018-04-22T01:39:21.409Z,22.20
2018-04-22T01:41:50.356Z,21.73
2018-04-22T01:44:18.841Z,21.50
2018-04-22T01:46:54.991Z,20.73
2018-04-22T01:49:22.918Z,20.57
2018-04-22T01:51:50.746Z,20.97
2018-04-22T01:54:18.576Z,21.90
2018-04-22T01:56:46.303Z,21.80
2018-04-22T01:59:13.978Z,21.57
2018-04-22T02:01:41.735Z,22.23
2018-04-22T02:04:09.379Z,23.40
2018-04-22T02:06:37.041Z,21.13
2018-04-22T02:09:04.857Z,22.00
2018-04-22T02:11:33.604Z,22.20
2018-04-22T02:14:02.149Z,22.00
2018-04-22T02:16:29.841Z,22.40
2018-04-22T02:18:57.501Z,21.77
2018-04-22T02:21:25.171Z,22.73
2018-04-22T02:23:52.871Z,22.03
2018-04-22T02:26:21.388Z,22.53
2018-04-22T02:28:49.137Z,24.30
2018-04-22T02:31:16.825Z,22.00
2018-04-22T02:33:44.517Z,23.57
2018-04-22T02:36:13.081Z,23.33
2018-04-22T02:38:40.812Z,20.30
2018-04-22T02:41:08.474Z,22.50
2018-04-22T02:43:36.200Z,19.57
2018-04-22T02:46:03.827Z,22.73
2018-04-22T02:48:31.468Z,23.07
2018-04-22T02:50:59.180Z,22.40
2018-04-22T02:53:26.928Z,22.40
2018-04-22T02:55:55.810Z,18.43
2018-04-22T02:58:23.555Z,21.23
2018-04-22T03:00:51.336Z,19.50
2018-04-22T03:03:19.093Z,19.57
2018-04-22T03:05:46.796Z,17.70
2018-04-22T03:08:14.538Z,21.03
2018-04-22T03:10:42.201Z,20.93
2018-04-22T03:13:09.908Z,19.77
2018-04-22T03:15:37.554Z,20.17
2018-04-22T03:18:05.240Z,21.70
2018-04-22T03:20:32.956Z,20.60
2018-04-22T03:23:00.581Z,21.33
2018-04-22T03:25:29.795Z,20.50
2018-04-22T03:27:58.205Z,19.90
2018-04-22T03:30:25.785Z,21.43
2018-04-22T03:33:08.495Z,22.60
2018-04-22T03:35:36.172Z,23.03
2018-04-22T03:38:03.924Z,22.20
2018-04-22T03:40:31.694Z,23.77
2018-04-22T03:43:00.176Z,21.80
2018-04-22T03:45:28.640Z,21.97
2018-04-22T03:47:56.300Z,22.20
2018-04-22T03:50:24.011Z,22.87
2018-04-22T03:52:51.741Z,18.63
2018-04-22T03:55:19.397Z,23.37
2018-04-22T03:57:47.141Z,25.70
2018-04-22T04:00:14.896Z,24.37
2018-04-22T04:02:42.591Z,25.67
2018-04-22T04:05:10.285Z,24.67
2018-04-22T04:07:37.938Z,19.07
2018-04-22T04:10:05.671Z,23.77
2018-04-22T04:12:33.343Z,23.97
2018-04-22T04:15:01.099Z,20.87
2018-04-22T04:17:28.700Z,22.17
2018-04-22T04:20:08.062Z,19.47
2018-04-22T04:22:41.694Z,22.07
2018-04-22T04:25:39.886Z,24.27
2018-04-22T04:28:07.569Z,25.70
2018-04-22T04:30:36.071Z,25.67
2018-04-22T04:33:03.757Z,26.23
2018-04-22T04:35:31.438Z,27.50
2018-04-22T04:37:59.120Z,27.13
2018-04-22T04:40:33.214Z,28.03
2018-04-22T04:43:00.862Z,29.20
2018-04-22T04:45:28.484Z,29.07
2018-04-22T04:47:56.891Z,27.20
2018-04-22T04:50:24.584Z,26.80
2018-04-22T04:52:52.243Z,28.43
2018-04-22T04:55:19.879Z,28.37
2018-04-22T04:57:47.502Z,28.83
2018-04-22T05:00:15.917Z,28.13
2018-04-22T05:02:43.500Z,29.00
2018-04-22T05:05:11.203Z,29.80
2018-04-22T05:07:39.614Z,31.20
2018-04-22T05:10:07.311Z,30.90
2018-04-22T05:12:35.006Z,26.70
2018-04-22T05:15:04.305Z,27.27
2018-04-22T05:17:32.693Z,29.43
2018-04-22T05:20:01.139Z,31.03
2018-04-22T05:22:28.795Z,31.07
2018-04-22T05:24:56.486Z,29.07
2018-04-22T05:27:24.153Z,30.23
2018-04-22T05:29:52.553Z,31.00
2018-04-22T05:32:20.165Z,31.03
2018-04-22T05:34:47.852Z,31.33
2018-04-22T05:37:17.105Z,26.53
2018-04-22T05:39:44.822Z,27.97
2018-04-22T05:42:13.230Z,26.10
2018-04-22T05:44:40.917Z,26.10
2018-04-22T05:47:08.801Z,23.47
2018-04-22T05:49:36.467Z,28.50
2018-04-22T05:52:04.116Z,26.47
2018-04-22T05:54:32.232Z,33.50
2018-04-22T05:56:59.871Z,34.53
2018-04-22T05:59:27.542Z,38.30
2018-04-22T06:01:55.130Z,40.57
2018-04-22T06:04:23.511Z,42.17
2018-04-22T06:06:51.133Z,41.73
2018-04-22T06:09:26.283Z,42.27
2018-04-22T06:11:53.965Z,43.63
2018-04-22T06:14:21.585Z,42.13
2018-04-22T06:16:49.202Z,42.93
2018-04-22T06:19:16.838Z,44.10
2018-04-22T06:21:45.238Z,37.70
2018-04-22T06:24:13.664Z,37.37
2018-04-22T06:26:41.322Z,38.67
2018-04-22T06:29:09.018Z,43.63
2018-04-22T06:31:36.677Z,40.77
2018-04-22T06:34:04.339Z,38.10
2018-04-22T06:36:31.935Z,37.87
2018-04-22T06:38:59.546Z,39.37
2018-04-22T06:41:27.138Z,43.13
2018-04-22T06:43:54.744Z,41.20
2018-04-22T06:46:22.382Z,36.53
2018-04-22T06:48:49.995Z,38.33
2018-04-22T06:51:17.604Z,39.37
2018-04-22T06:53:46.042Z,39.43
2018-04-22T06:56:14.446Z,40.13
2018-04-22T06:58:42.952Z,40.03
2018-04-22T07:01:10.613Z,39.70
2018-04-22T07:03:38.241Z,38.33
2018-04-22T07:06:05.872Z,38.93
2018-04-22T07:08:33.543Z,38.50
2018-04-22T07:11:01.231Z,34.57
2018-04-22T07:13:29.669Z,38.23
2018-04-22T07:15:57.361Z,39.07
2018-04-22T07:18:24.958Z,36.70
2018-04-22T07:20:52.660Z,37.57
2018-04-22T07:23:20.312Z,34.50
2018-04-22T07:25:47.984Z,42.47
2018-04-22T07:28:15.721Z,44.00
2018-04-22T07:30:43.389Z,43.40
2018-04-22T07:33:11.090Z,43.07
2018-04-22T07:35:44.471Z,43.57
2018-04-22T07:38:12.169Z,43.17
2018-04-22T07:40:40.689Z,43.03
2018-04-22T07:43:08.367Z,42.17
2018-04-22T07:45:36.049Z,44.10
2018-04-22T07:48:03.701Z,42.93
2018-04-22T07:50:31.401Z,44.37
2018-04-22T07:52:59.834Z,42.97
2018-04-22T07:55:27.481Z,42.70
2018-04-22T07:57:55.464Z,43.00
2018-04-22T08:00:23.280Z,42.20
2018-04-22T08:02:51.738Z,43.23
2018-04-22T08:05:19.375Z,42.20
2018-04-22T08:07:47.039Z,43.07
2018-04-22T08:10:16.731Z,42.30
2018-04-22T08:12:42.326Z,44.03
2018-04-22T08:15:10.106Z,41.33
2018-04-22T08:17:37.943Z,43.87
2018-04-22T08:20:05.785Z,41.37
2018-04-22T08:22:33.444Z,40.47
2018-04-22T08:25:01.128Z,39.30
2018-04-22T08:27:28.818Z,41.30
2018-04-22T08:29:56.437Z,41.77
2018-04-22T08:32:24.114Z,42.23
2018-04-22T08:34:51.834Z,42.17
2018-04-22T08:37:19.532Z,42.40
2018-04-22T08:39:47.732Z,41.92
2018-04-22T08:42:16.274Z,42.23
2018-04-22T08:44:44.740Z,42.03
2018-04-22T08:47:12.468Z,40.73
2018-04-22T08:49:40.895Z,39.93
2018-04-22T08:52:08.544Z,41.13
2018-04-22T08:54:36.304Z,39.17
2018-04-22T08:57:04.042Z,41.80
2018-04-22T08:59:31.710Z,41.30
2018-04-22T09:01:59.488Z,42.47
2018-04-22T09:04:35.046Z,41.50
2018-04-22T09:07:02.735Z,42.07
2018-04-22T09:09:30.411Z,42.53
2018-04-22T09:11:58.054Z,42.37
2018-04-22T09:14:25.764Z,43.23
2018-04-22T09:16:53.352Z,43.10
2018-04-22T09:19:21.111Z,41.83
2018-04-22T09:21:49.573Z,40.67
2018-04-22T09:24:17.272Z,43.00
2018-04-22T09:26:44.974Z,43.20
2018-04-22T09:29:12.713Z,42.70
2018-04-22T09:31:40.352Z,40.30
2018-04-22T09:34:07.999Z,38.97
2018-04-22T09:36:36.575Z,39.87
2018-04-22T09:39:04.225Z,39.20
2018-04-22T09:41:31.974Z,39.03
2018-04-22T09:43:59.668Z,37.37
2018-04-22T09:46:27.393Z,36.87
2018-04-22T09:48:58.157Z,36.40
2018-04-22T09:51:26.601Z,35.83
2018-04-22T09:53:54.221Z,34.27
2018-04-22T09:56:21.978Z,32.87
2018-04-22T09:58:49.715Z,31.13
2018-04-22T10:01:20.323Z,33.27
2018-04-22T10:03:48.052Z,29.70
2018-04-22T10:06:15.724Z,29.50
2018-04-22T10:08:43.412Z,26.73
2018-04-22T10:11:11.895Z,28.73
2018-04-22T10:13:39.521Z,27.00
2018-04-22T10:16:07.292Z,27.03
2018-04-22T10:18:34.936Z,25.07
2018-04-22T10:21:02.622Z,25.13
2018-04-22T10:23:31.029Z,21.63
2018-04-22T10:28:34.210Z,18.93
2018-04-22T10:31:01.888Z,20.53
2018-04-22T10:33:30.790Z,21.27
2018-04-22T10:35:59.298Z,22.60
2018-04-22T10:38:26.946Z,25.00
2018-04-22T10:40:54.657Z,22.33
2018-04-22T10:43:23.208Z,22.63
2018-04-22T10:45:52.001Z,23.50
2018-04-22T10:48:19.747Z,22.57
2018-04-22T10:53:41.837Z,23.20
2018-04-22T10:56:09.474Z,20.60
2018-04-22T10:58:37.186Z,18.50
2018-04-22T11:01:04.851Z,17.50
2018-04-22T11:03:36.318Z,15.93
2018-04-22T11:06:03.999Z,14.20
2018-04-22T11:08:31.705Z,16.63
2018-04-22T11:11:00.281Z,15.53
2018-04-22T11:13:27.946Z,15.67
2018-04-22T11:15:55.947Z,14.10
2018-04-22T11:18:23.745Z,11.57
2018-04-22T11:20:54.658Z,12.27
2018-04-22T11:23:23.971Z,16.37
2018-04-22T11:28:24.985Z,15.80
2018-04-22T11:30:53.715Z,14.27
2018-04-22T11:33:22.455Z,16.80
2018-04-22T11:35:50.093Z,14.70
2018-04-22T11:38:17.768Z,13.03
2018-04-22T11:40:45.469Z,12.43
2018-04-22T11:43:13.127Z,13.47
2018-04-22T11:45:40.910Z,13.03
2018-04-22T11:48:08.628Z,11.87
2018-04-22T11:50:36.333Z,11.30
2018-04-22T11:53:05.066Z,12.53
2018-04-22T11:55:32.804Z,11.30
2018-04-22T11:58:07.167Z,10.60
2018-04-22T12:00:34.789Z,10.40
2018-04-22T12:03:03.214Z,11.30
2018-04-22T12:05:32.936Z,10.00
2018-04-22T12:08:01.848Z,14.10
2018-04-22T12:10:29.487Z,16.83
2018-04-22T12:12:57.234Z,13.53
2018-04-22T12:15:25.807Z,14.27
2018-04-22T12:17:53.606Z,13.60
2018-04-22T12:20:21.201Z,14.20
2018-04-22T12:22:49.005Z,13.53
2018-04-22T12:25:16.681Z,17.90
2018-04-22T12:27:44.471Z,16.63
2018-04-22T12:30:12.216Z,20.23
2018-04-22T12:32:39.879Z,16.93
2018-04-22T12:35:07.460Z,17.63
2018-04-22T12:37:35.829Z,21.53
2018-04-22T12:40:03.535Z,21.80
2018-04-22T12:42:31.254Z,20.00
2018-04-22T12:44:58.938Z,19.10
2018-04-22T12:47:27.924Z,33.73
2018-04-22T12:49:56.394Z,32.20
2018-04-22T12:52:24.032Z,33.10
2018-04-22T12:54:51.932Z,28.67
2018-04-22T12:57:19.616Z,31.80
2018-04-22T12:59:48.002Z,29.87
2018-04-22T13:02:16.353Z,27.30
2018-04-22T13:04:44.077Z,28.60
2018-04-22T13:07:11.798Z,30.13
2018-04-22T13:09:41.633Z,29.73
2018-04-22T13:12:09.433Z,30.87
2018-04-22T13:14:38.193Z,28.57
2018-04-22T13:17:05.950Z,30.57
2018-04-22T13:19:33.640Z,26.80
2018-04-22T13:22:01.314Z,24.40
2018-04-22T13:24:29.093Z,23.40
2018-04-22T13:26:56.745Z,23.90
2018-04-22T13:29:24.371Z,20.77
2018-04-22T13:31:52.113Z,16.73
2018-04-22T13:34:19.862Z,13.63
2018-04-22T13:36:47.471Z,11.73
2018-04-22T13:39:15.212Z,10.43
2018-04-22T13:41:42.883Z,9.30
2018-04-22T13:44:10.553Z,10.77
2018-04-22T13:46:38.514Z,11.90
2018-04-22T13:49:06.210Z,11.47
2018-04-22T13:51:33.878Z,12.43
2018-04-22T13:54:02.307Z,13.93
2018-04-22T13:56:29.925Z,12.17
2018-04-22T13:58:58.370Z,14.37
2018-04-22T14:01:26.062Z,12.90
2018-04-22T14:03:54.523Z,12.23
2018-04-22T14:06:22.234Z,12.27
2018-04-22T14:08:49.860Z,11.93
2018-04-22T14:11:18.327Z,11.93
2018-04-22T14:13:46.117Z,10.87
2018-04-22T14:16:16.347Z,9.30
2018-04-22T14:18:43.999Z,9.63
2018-04-22T14:21:11.754Z,11.70
2018-04-22T14:23:39.423Z,13.27
2018-04-22T14:26:07.104Z,10.23
2018-04-22T14:28:34.811Z,10.70
2018-04-22T14:31:02.528Z,12.30
2018-04-22T14:33:30.145Z,10.30
2018-04-22T14:35:57.811Z,10.87
2018-04-22T14:38:26.241Z,9.30
2018-04-22T14:40:53.890Z,9.53
2018-04-22T14:43:21.546Z,10.37
2018-04-22T14:46:00.896Z,9.00
2018-04-22T14:48:28.589Z,9.10
2018-04-22T14:50:56.191Z,9.20
2018-04-22T14:53:23.994Z,7.77
2018-04-22T14:55:51.646Z,7.30
2018-04-22T14:58:19.264Z,7.93
2018-04-22T15:00:46.821Z,6.40
2018-04-22T15:03:14.513Z,6.60
2018-04-22T15:05:43.024Z,6.00
2018-04-22T15:08:10.736Z,4.77
2018-04-22T15:10:38.406Z,5.50
2018-04-22T15:13:06.201Z,6.00
2018-04-22T15:15:33.957Z,5.40
2018-04-22T15:18:01.576Z,5.47
2018-04-22T15:20:30.173Z,4.50
2018-04-22T15:22:57.799Z,4.37
2018-04-22T15:25:25.495Z,5.17
2018-04-22T15:27:53.224Z,4.93
2018-04-22T15:30:22.369Z,5.50
2018-04-22T15:32:50.070Z,5.87
2018-04-22T15:35:18.539Z,4.90
2018-04-22T15:37:46.165Z,4.87
2018-04-22T15:40:13.824Z,4.40
2018-04-22T15:42:42.558Z,4.53
2018-04-22T15:45:11.235Z,5.43
2018-04-22T15:47:38.800Z,5.17
2018-04-22T15:50:07.539Z,4.63
2018-04-22T15:52:35.191Z,4.83
2018-04-22T15:55:03.048Z,5.20
2018-04-22T15:57:30.712Z,5.50
2018-04-22T15:59:58.384Z,5.00
2018-04-22T16:02:26.081Z,4.90
2018-04-22T16:04:53.881Z,5.50
2018-04-22T16:07:21.595Z,4.87
2018-04-22T16:09:49.269Z,5.40
2018-04-22T16:12:17.042Z,4.57
2018-04-22T16:14:45.505Z,4.90
2018-04-22T16:17:13.169Z,4.83
2018-04-22T16:19:40.808Z,5.50
2018-04-22T16:22:08.407Z,4.47
2018-04-22T16:24:36.064Z,5.27
2018-04-22T16:27:05.277Z,5.13
2018-04-22T16:29:32.920Z,5.20
2018-04-22T16:32:01.395Z,5.20
2018-04-22T16:34:29.730Z,4.90
2018-04-22T16:36:57.401Z,4.97
2018-04-22T16:39:25.086Z,5.10
2018-04-22T16:41:52.896Z,5.50
2018-04-22T16:44:20.566Z,5.57
2018-04-22T16:46:48.577Z,5.60
2018-04-22T16:49:16.242Z,5.13
2018-04-22T16:51:43.926Z,5.67
2018-04-22T16:54:12.396Z,4.93
2018-04-22T16:56:40.852Z,6.00
2018-04-22T16:59:08.559Z,6.10
2018-04-22T17:01:36.234Z,5.50
2018-04-22T17:04:03.902Z,5.10
2018-04-22T17:06:31.576Z,5.50
2018-04-22T17:08:59.250Z,5.83
2018-04-22T17:11:26.995Z,5.20
2018-04-22T17:13:54.820Z,5.67
2018-04-22T17:16:22.653Z,6.10
2018-04-22T17:18:50.399Z,5.57
2018-04-22T17:21:18.191Z,5.10
2018-04-22T17:23:45.901Z,5.50
2018-04-22T17:26:13.670Z,5.63
2018-04-22T17:28:41.337Z,5.10
2018-04-22T17:31:09.035Z,5.33
2018-04-22T17:33:36.756Z,5.83
2018-04-22T17:36:04.583Z,5.03
2018-04-22T17:38:32.387Z,5.30
2018-04-22T17:41:00.055Z,5.40
2018-04-22T17:43:27.732Z,5.60
2018-04-22T17:45:55.380Z,5.80
2018-04-22T17:48:23.823Z,5.73
2018-04-22T17:50:51.516Z,5.97
2018-04-22T17:53:19.232Z,6.07
2018-04-22T17:55:47.712Z,5.57
2018-04-22T17:58:15.409Z,5.63
2018-04-22T18:00:43.116Z,5.73
2018-04-22T18:03:10.810Z,6.23
2018-04-22T18:05:38.479Z,6.57
2018-04-22T18:08:06.140Z,5.50
2018-04-22T18:10:33.882Z,5.80
2018-04-22T18:13:01.536Z,6.60
2018-04-22T18:15:29.178Z,5.60
2018-04-22T18:17:57.770Z,6.03
2018-04-22T18:20:25.466Z,5.77
2018-04-22T18:22:53.137Z,5.67
2018-04-22T18:25:20.854Z,5.90
2018-04-22T18:27:49.237Z,5.97
2018-04-22T18:30:16.924Z,5.80
2018-04-22T18:32:44.523Z,6.10
2018-04-22T18:35:12.384Z,5.27
2018-04-22T18:37:40.113Z,5.97
2018-04-22T18:40:08.690Z,5.43
2018-04-22T18:42:37.221Z,5.83
2018-04-22T18:45:04.952Z,5.30
2018-04-22T18:47:32.662Z,5.83
2018-04-22T18:50:01.093Z,5.33
2018-04-22T18:52:29.464Z,5.50
2018-04-22T18:54:57.138Z,5.30
2018-04-22T18:57:24.748Z,5.20
2018-04-22T18:59:53.198Z,5.50
2018-04-22T19:02:20.943Z,5.07
2018-04-22T19:04:48.709Z,5.23
2018-04-22T19:07:16.466Z,5.70
2018-04-22T19:09:44.194Z,5.67
2018-04-22T19:12:11.851Z,5.40
2018-04-22T19:14:40.255Z,5.87
2018-04-22T19:17:08.044Z,5.73
2018-04-22T19:19:35.693Z,5.27
2018-04-22T19:22:03.338Z,6.00
2018-04-22T19:24:31.086Z,5.90
2018-04-22T19:26:58.697Z,5.57
2018-04-22T19:29:26.364Z,5.03
2018-04-22T19:31:54.754Z,5.33
2018-04-22T19:34:23.190Z,4.97
2018-04-22T19:36:50.932Z,5.47
2018-04-22T19:39:18.588Z,5.70
2018-04-22T19:41:46.250Z,5.57
2018-04-22T19:44:14.028Z,5.87
2018-04-22T19:46:41.757Z,5.53
2018-04-22T19:49:09.429Z,5.37
2018-04-22T19:51:37.841Z,6.53
2018-04-22T19:54:05.548Z,5.60
2018-04-22T19:56:33.961Z,6.37
2018-04-22T19:59:01.585Z,5.87
2018-04-22T20:01:29.241Z,5.83
2018-04-22T20:03:56.926Z,5.60
2018-04-22T20:06:24.533Z,5.50
2018-04-22T20:08:52.245Z,5.80
2018-04-22T20:11:19.874Z,5.30
2018-04-22T20:13:48.304Z,5.03
2018-04-22T20:16:15.969Z,5.13
2018-04-22T20:18:43.624Z,5.40
2018-04-22T20:21:11.317Z,5.63
2018-04-22T20:23:39.013Z,4.93
2018-04-22T20:26:06.642Z,4.83
2018-04-22T20:28:34.296Z,6.03
2018-04-22T20:31:01.911Z,7.27
2018-04-22T20:33:30.307Z,6.47
2018-04-22T20:35:57.951Z,6.60
2018-04-22T20:38:25.623Z,5.60
2018-04-22T20:40:53.321Z,5.80
2018-04-22T20:43:21.026Z,6.33
2018-04-22T20:45:48.803Z,5.90
2018-04-22T20:48:16.521Z,6.47
2018-04-22T20:50:44.952Z,6.53
2018-04-22T20:53:14.482Z,6.30
2018-04-22T20:55:42.159Z,6.67
2018-04-22T20:58:09.871Z,7.00
2018-04-22T21:00:37.534Z,6.80
2018-04-22T21:03:05.150Z,6.97
2018-04-22T21:05:32.776Z,7.33
2018-04-22T21:08:00.355Z,8.13
2018-04-22T21:10:28.755Z,7.53
2018-04-22T21:12:56.404Z,8.10
2018-04-22T21:15:24.082Z,8.10
2018-04-22T21:17:53.242Z,7.80
2018-04-22T21:20:20.859Z,7.87
2018-04-22T21:22:48.532Z,8.10
2018-04-22T21:25:16.137Z,7.87
2018-04-22T21:27:44.511Z,7.67
2018-04-22T21:30:12.148Z,7.70
2018-04-22T21:32:39.787Z,7.80
2018-04-22T21:35:07.505Z,8.40
2018-04-22T21:37:35.903Z,7.37
2018-04-22T21:40:03.580Z,8.27
2018-04-22T21:42:31.269Z,8.90
2018-04-22T21:44:58.924Z,8.70
2018-04-22T21:47:27.394Z,8.07
2018-04-22T21:49:55.041Z,8.17
2018-04-22T21:52:22.680Z,7.80
2018-04-22T21:54:50.293Z,7.77
2018-04-22T21:57:18.715Z,6.70
2018-04-22T21:59:46.390Z,7.47
2018-04-22T22:02:14.052Z,7.00
2018-04-22T22:04:41.719Z,6.33
2018-04-22T22:07:09.339Z,6.70
2018-04-22T22:09:37.045Z,6.63
2018-04-22T22:12:04.677Z,6.53
2018-04-22T22:14:33.076Z,7.40
2018-04-22T22:17:00.766Z,6.83
2018-04-22T22:19:28.634Z,5.80
2018-04-22T22:21:56.268Z,5.23
2018-04-22T22:24:23.873Z,4.57
2018-04-22T22:26:51.513Z,4.23
2018-04-22T22:29:19.136Z,3.50
2018-04-22T22:31:46.758Z,3.60
2018-04-22T22:34:15.173Z,3.53
2018-04-22T22:36:42.836Z,3.50
2018-04-22T22:39:10.430Z,3.80
2018-04-22T22:41:38.162Z,3.43
2018-04-22T22:44:05.834Z,3.87
2018-04-22T22:46:33.528Z,3.50
2018-04-22T22:49:02.190Z,3.63
2018-04-22T22:51:29.812Z,3.27
2018-04-22T22:53:57.467Z,3.40
2018-04-22T22:56:25.846Z,3.70
2018-04-22T22:58:53.539Z,3.27
2018-04-22T23:01:21.199Z,3.20
2018-04-22T23:03:48.888Z,3.40
2018-04-22T23:06:17.344Z,3.27
2018-04-22T23:08:45.098Z,3.70
2018-04-22T23:11:12.769Z,3.60
2018-04-22T23:13:40.469Z,3.30
2018-04-22T23:16:08.110Z,3.30
2018-04-22T23:18:36.474Z,3.00
2018-04-22T23:21:04.096Z,3.33
2018-04-22T23:23:31.969Z,3.50
2018-04-22T23:25:59.619Z,3.50
2018-04-22T23:28:27.228Z,3.07
2018-04-22T23:30:55.662Z,3.33
2018-04-22T23:33:23.317Z,3.20
2018-04-22T23:35:50.918Z,3.63
2018-04-22T23:38:18.527Z,3.60
2018-04-22T23:40:46.229Z,3.70
2018-04-22T23:43:13.992Z,3.60
2018-04-22T23:45:41.632Z,3.60
2018-04-22T23:48:15.206Z,3.70
2018-04-22T23:50:42.878Z,4.23
2018-04-22T23:53:10.563Z,4.00
2018-04-22T23:55:38.205Z,3.87
2018-04-22T23:58:05.872Z,4.10
